Adams Cove, New York
Current Conditions -  °F | °C
As of 6:56 AM on Tuesday 27 Jan 2015 (Local Time) from KART Reporting Station
Clear Clear  
Wind Chill: -12°   Ceiling: Unl
Heat Index:   Visibility: 10mi
Dew Point: -5°   Wind: 14mph
Humidity: 63%   Direction: 40°NE
Pressure: 29.99"   Gusts: 22mph
Location:  44.0116°N, 76.0789°W
Report Text: KART 271156Z AUTO 04012G19KT 10SM CLR M15/M21 A2999 RMK AO2 SLP167 T11501206 11133 21156 53001
Loading
Personal Weather Stations






























Interactive Weather Map New forecast layout! Learn more

10-Day Weather Forecast

Advertisements
Track Severe Weather on mobile